Time;durP1;ratioP1;P1;durP2;ratioP2;P2;SDS_P1;SDS_P2;PMS_P1;PMS_P2;Temp;Humidity;BMP_temperature;BMP_pressure;BME280_temperature;BME280_humidity;BME280_pressure;Samples;Min_cycle;Max_cycle;Signal;HPM_P1;HPM_P2
2021/06/18 00:01:15;;;;;;;20.37;13.50;;;16.20;99.90;;;;;;4960595;28;20289;-79
2021/06/18 00:03:44;;;;;;;23.07;13.60;;;16.20;99.90;;;;;;4973474;28;20209;-79
2021/06/18 00:06:11;;;;;;;21.53;13.90;;;16.20;99.90;;;;;;4973247;28;20233;-79
2021/06/18 00:08:39;;;;;;;19.93;14.10;;;16.10;99.90;;;;;;4973376;28;20269;-79
2021/06/18 00:11:06;;;;;;;20.00;13.80;;;16.10;99.90;;;;;;4967446;28;20211;-79
2021/06/18 00:13:33;;;;;;;21.93;14.07;;;16.20;99.90;;;;;;4962006;28;20289;-80
2021/06/18 00:16:00;;;;;;;18.77;13.27;;;16.20;99.90;;;;;;4972946;28;20293;-80
2021/06/18 00:18:27;;;;;;;18.47;12.73;;;16.30;99.90;;;;;;4973743;28;20252;-79
2021/06/18 00:20:55;;;;;;;20.27;12.47;;;16.30;99.90;;;;;;4973462;28;20680;-80
2021/06/18 00:23:22;;;;;;;17.90;12.43;;;16.20;99.90;;;;;;4966283;28;20292;-80
2021/06/18 00:25:49;;;;;;;19.53;12.17;;;16.20;99.90;;;;;;4968835;28;20313;-80
2021/06/18 00:28:16;;;;;;;18.47;12.00;;;16.30;99.90;;;;;;4963599;28;20242;-80
2021/06/18 00:30:44;;;;;;;15.93;11.60;;;16.30;99.90;;;;;;4972276;28;20290;-80
2021/06/18 00:33:11;;;;;;;16.03;11.57;;;16.30;99.90;;;;;;4972903;28;20289;-80
2021/06/18 00:35:38;;;;;;;17.00;11.80;;;16.30;99.90;;;;;;4970708;28;20799;-79
2021/06/18 00:38:06;;;;;;;18.63;11.97;;;16.40;99.90;;;;;;4953756;29;20195;-80
2021/06/18 00:40:34;;;;;;;18.83;11.87;;;16.40;99.90;;;;;;4953904;29;20271;-80
2021/06/18 00:43:01;;;;;;;18.10;11.53;;;16.40;99.90;;;;;;4954076;28;20281;-80
2021/06/18 00:45:28;;;;;;;19.67;11.47;;;16.40;99.90;;;;;;4973006;28;20294;-80
2021/06/18 00:47:58;;;;;;;16.50;11.23;;;16.40;99.90;;;;;;4972357;28;20261;-80
2021/06/18 00:50:27;;;;;;;15.07;10.57;;;16.40;99.90;;;;;;4967104;28;20238;-80
2021/06/18 00:52:54;;;;;;;15.13;10.97;;;16.40;99.90;;;;;;4960312;28;20242;-80
2021/06/18 00:55:22;;;;;;;14.90;10.50;;;16.40;99.90;;;;;;4953683;29;20203;-79
2021/06/18 00:57:50;;;;;;;13.37;9.83;;;16.40;99.90;;;;;;4971846;28;20229;-80
2021/06/18 01:00:18;;;;;;;15.63;10.43;;;16.40;99.90;;;;;;4973024;28;20304;-79
2021/06/18 01:02:45;;;;;;;13.87;10.87;;;16.40;99.90;;;;;;4971372;28;20644;-79
2021/06/18 01:05:15;;;;;;;13.97;9.53;;;16.40;99.90;;;;;;4969900;28;20256;-80
2021/06/18 01:07:50;;;;;;;12.77;9.50;;;16.40;99.90;;;;;;4967402;28;20665;-79
2021/06/18 01:10:26;;;;;;;13.00;9.57;;;16.40;99.90;;;;;;4953759;29;20230;-80
2021/06/18 01:13:08;;;;;;;16.30;10.00;;;16.40;99.90;;;;;;4957923;28;20289;-79
2021/06/18 01:15:48;;;;;;;14.73;10.03;;;16.50;99.90;;;;;;4953678;29;20689;-79
2021/06/18 01:18:19;;;;;;;12.30;9.13;;;16.40;99.90;;;;;;4968506;28;20226;-80
2021/06/18 01:21:13;;;;;;;13.53;9.63;;;16.40;99.90;;;;;;4966366;28;20230;-80
2021/06/18 01:23:53;;;;;;;11.73;9.13;;;16.40;99.90;;;;;;4972741;28;20238;-79
2021/06/18 01:26:37;;;;;;;14.00;10.17;;;16.40;99.90;;;;;;4970282;28;20234;-79
2021/06/18 01:29:06;;;;;;;12.53;9.90;;;16.40;99.90;;;;;;4975962;28;20270;-79
2021/06/18 01:31:37;;;;;;;14.00;9.90;;;16.50;99.90;;;;;;4977186;28;20233;-79
2021/06/18 01:34:11;;;;;;;13.73;9.63;;;16.50;99.90;;;;;;4975782;28;20691;-79
2021/06/18 01:36:39;;;;;;;18.33;9.50;;;16.50;99.90;;;;;;4969867;28;20224;-79
2021/06/18 01:39:07;;;;;;;13.27;8.83;;;16.50;99.90;;;;;;4972367;28;20226;-79
2021/06/18 01:41:34;;;;;;;16.53;8.87;;;16.40;99.90;;;;;;4976678;28;20304;-79
2021/06/18 01:44:03;;;;;;;13.30;9.17;;;16.40;99.90;;;;;;4959443;28;20689;-78
2021/06/18 01:46:35;;;;;;;15.43;8.70;;;16.40;99.90;;;;;;4957192;29;20206;-79
2021/06/18 01:49:05;;;;;;;16.77;9.03;;;16.40;99.90;;;;;;4959062;28;20227;-79
2021/06/18 01:51:34;;;;;;;12.70;8.93;;;16.40;99.90;;;;;;4971932;28;20241;-78
2021/06/18 01:54:02;;;;;;;17.80;9.23;;;16.30;99.90;;;;;;4969127;28;20233;-78
2021/06/18 01:56:33;;;;;;;14.57;9.27;;;16.30;99.90;;;;;;4962162;28;20234;-78
2021/06/18 01:59:02;;;;;;;13.93;9.40;;;16.30;99.90;;;;;;4975950;28;20357;-78
2021/06/18 02:01:34;;;;;;;15.10;9.67;;;16.30;99.90;;;;;;4976080;28;20263;-78
2021/06/18 02:04:01;;;;;;;12.37;9.23;;;16.30;99.90;;;;;;4961073;28;20203;-78
2021/06/18 02:06:30;;;;;;;14.63;8.30;;;16.30;99.90;;;;;;4953699;29;20196;-78
2021/06/18 02:08:59;;;;;;;12.20;8.37;;;16.40;99.90;;;;;;4956544;29;20777;-79
2021/06/18 02:11:29;;;;;;;10.10;7.63;;;16.30;99.90;;;;;;4973237;28;20681;-78
2021/06/18 02:13:57;;;;;;;9.70;7.33;;;16.30;99.90;;;;;;4972547;28;20290;-79
2021/06/18 02:16:26;;;;;;;9.87;7.30;;;16.30;99.90;;;;;;4963155;28;20257;-79
2021/06/18 02:18:56;;;;;;;9.80;7.07;;;16.40;99.90;;;;;;4975862;28;20297;-78
2021/06/18 02:21:25;;;;;;;8.13;6.97;;;16.40;99.90;;;;;;4975033;28;20230;-80
2021/06/18 02:23:53;;;;;;;9.33;7.40;;;16.40;99.90;;;;;;4966872;28;20203;-78
2021/06/18 02:26:24;;;;;;;10.87;7.10;;;16.40;99.90;;;;;;4965545;28;20285;-78
2021/06/18 02:28:52;;;;;;;8.70;7.00;;;16.40;99.90;;;;;;4972154;28;20770;-80
2021/06/18 02:31:21;;;;;;;10.07;5.97;;;16.40;99.90;;;;;;4956240;29;20207;-79
2021/06/18 02:33:48;;;;;;;9.07;6.10;;;16.40;99.90;;;;;;4972563;28;20253;-80
2021/06/18 02:36:17;;;;;;;7.93;6.17;;;16.40;99.90;;;;;;4958198;28;20238;-79
2021/06/18 02:38:45;;;;;;;7.40;6.13;;;16.50;99.90;;;;;;4966412;28;20319;-80
2021/06/18 02:41:13;;;;;;;7.70;5.47;;;16.50;99.90;;;;;;4958495;28;20312;-79
2021/06/18 02:43:40;;;;;;;8.10;5.13;;;16.50;99.90;;;;;;4974385;28;20277;-78
2021/06/18 02:46:07;;;;;;;5.43;3.87;;;16.60;99.90;;;;;;4974511;28;20222;-79
2021/06/18 02:48:42;;;;;;;5.23;4.10;;;16.60;99.90;;;;;;4971814;28;20218;-79
2021/06/18 02:51:16;;;;;;;6.53;4.00;;;16.50;99.90;;;;;;4974587;28;20750;-78
2021/06/18 02:53:49;;;;;;;4.93;3.60;;;16.50;99.90;;;;;;4969674;28;20234;-80
2021/06/18 02:56:25;;;;;;;5.17;3.33;;;16.60;99.90;;;;;;4962242;28;20237;-78
2021/06/18 02:58:57;;;;;;;6.50;3.60;;;16.50;99.90;;;;;;4963609;28;20301;-80
2021/06/18 03:01:28;;;;;;;4.43;3.03;;;16.60;99.90;;;;;;4964639;28;20291;-78
2021/06/18 03:03:58;;;;;;;3.80;3.27;;;16.60;99.90;;;;;;4963680;28;20229;-78
2021/06/18 03:06:27;;;;;;;4.67;3.53;;;16.60;99.90;;;;;;4975119;28;20297;-79
2021/06/18 03:08:59;;;;;;;3.97;3.53;;;16.60;99.90;;;;;;4969833;28;20251;-78
2021/06/18 03:11:29;;;;;;;5.10;3.73;;;16.60;99.90;;;;;;4965542;28;20290;-79
2021/06/18 03:13:59;;;;;;;11.13;4.13;;;16.60;99.90;;;;;;4974697;28;20248;-79
2021/06/18 03:16:29;;;;;;;4.40;3.40;;;16.60;99.90;;;;;;4957612;28;20712;-79
2021/06/18 03:19:00;;;;;;;4.73;3.90;;;16.60;99.90;;;;;;4973509;28;20202;-79
2021/06/18 03:21:30;;;;;;;6.20;3.90;;;16.60;99.90;;;;;;4974089;28;20309;-79
2021/06/18 03:24:01;;;;;;;5.47;4.40;;;16.60;99.90;;;;;;4974381;28;20244;-79
2021/06/18 03:26:29;;;;;;;5.63;4.20;;;16.70;99.90;;;;;;4955376;28;20242;-79
2021/06/18 03:28:57;;;;;;;7.20;4.30;;;16.70;99.90;;;;;;4955674;28;20262;-79
2021/06/18 03:31:25;;;;;;;5.50;4.20;;;16.70;99.90;;;;;;4974209;28;20641;-79
2021/06/18 03:33:53;;;;;;;4.83;3.83;;;16.70;99.90;;;;;;4974211;28;20257;-79
2021/06/18 03:36:24;;;;;;;4.57;4.13;;;16.70;99.90;;;;;;4960463;28;20234;-79
2021/06/18 03:38:52;;;;;;;4.80;3.60;;;16.70;99.90;;;;;;4973498;28;20587;-79
2021/06/18 03:41:22;;;;;;;5.03;3.77;;;16.70;99.90;;;;;;4967413;28;20208;-79
2021/06/18 03:43:50;;;;;;;3.90;3.50;;;16.70;99.90;;;;;;4967622;28;20230;-80
2021/06/18 03:46:18;;;;;;;4.13;3.37;;;16.70;99.90;;;;;;4955452;28;20285;-79
2021/06/18 03:48:46;;;;;;;6.93;3.20;;;16.70;99.90;;;;;;4959011;28;20309;-78
2021/06/18 03:51:13;;;;;;;5.03;3.70;;;16.70;99.90;;;;;;4954445;28;20705;-79
2021/06/18 03:53:40;;;;;;;4.43;3.57;;;16.70;99.90;;;;;;4974279;28;20308;-79
2021/06/18 03:56:08;;;;;;;5.03;3.40;;;16.80;99.90;;;;;;4967302;28;20235;-79
2021/06/18 03:58:39;;;;;;;3.80;3.33;;;16.80;99.90;;;;;;4970008;28;20233;-79
2021/06/18 04:01:07;;;;;;;6.90;3.50;;;16.80;99.90;;;;;;4956566;28;20207;-80
2021/06/18 04:03:35;;;;;;;5.13;3.50;;;16.80;99.90;;;;;;4969748;28;20233;-79
2021/06/18 04:06:07;;;;;;;4.13;3.73;;;16.80;99.90;;;;;;4969414;28;20226;-79
2021/06/18 04:08:35;;;;;;;3.90;3.37;;;16.90;99.90;;;;;;4959550;28;20253;-79
2021/06/18 04:11:04;;;;;;;5.07;3.40;;;16.80;99.90;;;;;;4973701;28;20672;-79
2021/06/18 04:13:32;;;;;;;5.50;3.40;;;16.80;99.90;;;;;;4973328;28;20648;-79
2021/06/18 04:16:00;;;;;;;4.87;3.53;;;16.90;99.90;;;;;;4972862;28;20389;-79
2021/06/18 04:18:31;;;;;;;5.47;3.83;;;16.90;99.90;;;;;;4973791;28;20265;-79
2021/06/18 04:20:59;;;;;;;4.17;3.53;;;16.90;99.90;;;;;;4972290;28;20207;-80
2021/06/18 04:23:29;;;;;;;4.97;3.80;;;16.90;99.90;;;;;;4973104;28;20289;-79
2021/06/18 04:25:56;;;;;;;5.57;4.20;;;17.00;99.90;;;;;;4957855;28;20195;-79
2021/06/18 04:28:23;;;;;;;4.50;4.10;;;17.00;99.90;;;;;;4967409;28;20662;-79
2021/06/18 04:30:50;;;;;;;7.50;4.28;;;17.00;99.90;;;;;;4964721;28;20277;-79
2021/06/18 04:33:19;;;;;;;5.37;4.47;;;17.10;99.90;;;;;;4963361;28;20230;-79
2021/06/18 04:35:46;;;;;;;5.93;4.55;;;17.00;99.90;;;;;;4970390;28;20202;-79
2021/06/18 04:38:13;;;;;;;4.63;4.23;;;17.10;99.90;;;;;;4957599;28;20261;-79
2021/06/18 04:40:40;;;;;;;5.88;4.72;;;17.10;99.90;;;;;;4973301;28;20288;-79
2021/06/18 04:43:07;;;;;;;5.83;4.30;;;17.10;99.90;;;;;;4954423;29;20238;-79
2021/06/18 04:45:34;;;;;;;5.85;4.60;;;17.10;99.90;;;;;;4953400;28;20203;-80
2021/06/18 04:48:01;;;;;;;7.67;4.47;;;17.20;99.90;;;;;;4964931;28;20762;-80
2021/06/18 04:50:30;;;;;;;6.10;4.20;;;17.10;99.90;;;;;;4966461;28;20234;-80
2021/06/18 04:52:57;;;;;;;6.40;4.75;;;17.20;99.90;;;;;;4954064;29;20235;-79
2021/06/18 04:55:24;;;;;;;5.23;4.47;;;17.20;99.90;;;;;;4953844;28;20235;-80
2021/06/18 04:57:51;;;;;;;6.25;4.78;;;17.20;99.90;;;;;;4953771;29;20254;-79
2021/06/18 05:00:23;;;;;;;5.30;4.73;;;17.30;99.90;;;;;;4954879;28;20285;-80
2021/06/18 05:02:50;;;;;;;5.60;4.85;;;17.30;99.90;;;;;;4953676;28;20207;-79
2021/06/18 05:05:17;;;;;;;4.93;4.47;;;17.40;99.90;;;;;;4969750;28;20226;-80
2021/06/18 05:07:45;;;;;;;5.93;5.15;;;17.40;99.90;;;;;;4964559;28;20257;-77
2021/06/18 05:10:13;;;;;;;5.30;4.80;;;17.40;99.90;;;;;;4973265;28;20258;-80
2021/06/18 05:12:40;;;;;;;6.90;5.45;;;17.40;99.90;;;;;;4966057;28;20234;-80
2021/06/18 05:15:08;;;;;;;6.50;5.72;;;17.50;99.90;;;;;;4973124;28;20253;-79
2021/06/18 05:17:35;;;;;;;7.95;5.95;;;17.50;99.90;;;;;;4970187;28;20293;-80
2021/06/18 05:20:02;;;;;;;8.30;6.15;;;17.50;99.90;;;;;;4972487;28;20781;-79
2021/06/18 05:22:28;;;;;;;8.70;5.70;;;17.50;99.90;;;;;;4973254;28;20248;-78
2021/06/18 05:24:57;;;;;;;7.13;5.93;;;17.50;99.90;;;;;;4972726;28;20233;-78
2021/06/18 05:27:24;;;;;;;9.32;6.60;;;17.50;99.90;;;;;;4972777;28;20289;-77
2021/06/18 05:29:51;;;;;;;8.02;5.85;;;17.50;99.90;;;;;;4972049;28;20245;-77
2021/06/18 05:32:18;;;;;;;8.57;5.88;;;17.60;99.90;;;;;;4971075;28;20252;-78
2021/06/18 05:34:44;;;;;;;9.23;6.00;;;17.60;99.90;;;;;;4971854;28;20285;-77
2021/06/18 05:37:11;;;;;;;8.88;6.18;;;17.60;99.90;;;;;;4964249;28;20286;-78
2021/06/18 05:39:38;;;;;;;7.55;6.45;;;17.70;99.90;;;;;;4963342;28;20254;-77
2021/06/18 05:42:07;;;;;;;9.93;6.10;;;17.70;99.90;;;;;;4970697;28;20249;-76
2021/06/18 05:44:34;;;;;;;9.02;6.00;;;17.70;99.90;;;;;;4962453;28;20763;-78
2021/06/18 05:47:02;;;;;;;8.95;5.90;;;17.80;99.90;;;;;;4967495;28;20234;-80
2021/06/18 05:49:29;;;;;;;8.50;5.45;;;17.70;99.90;;;;;;4970247;28;20242;-79
2021/06/18 05:51:56;;;;;;;7.63;6.20;;;17.70;99.90;;;;;;4969039;28;20234;-80
2021/06/18 05:54:27;;;;;;;8.73;5.82;;;17.70;99.90;;;;;;4972208;28;20316;-79
2021/06/18 05:56:54;;;;;;;8.25;6.45;;;17.70;99.90;;;;;;4970947;28;20202;-78
2021/06/18 05:59:22;;;;;;;9.25;6.00;;;17.80;99.90;;;;;;4966731;28;20249;-79
2021/06/18 06:01:49;;;;;;;8.75;6.03;;;17.90;99.90;;;;;;4947491;29;20547;-79
2021/06/18 06:04:16;;;;;;;6.80;5.75;;;17.90;99.90;;;;;;4957363;28;20282;-79
2021/06/18 06:06:43;;;;;;;6.60;6.00;;;17.90;99.90;;;;;;4953168;29;20290;-79
2021/06/18 06:09:10;;;;;;;7.32;5.72;;;17.90;99.90;;;;;;4957656;28;20273;-79
2021/06/18 06:11:37;;;;;;;8.20;5.82;;;18.00;99.90;;;;;;4959511;28;20237;-79
2021/06/18 06:14:05;;;;;;;9.13;5.40;;;18.00;99.90;;;;;;4973135;28;20241;-79
2021/06/18 06:16:35;;;;;;;6.90;4.90;;;18.10;99.90;;;;;;4975376;28;20800;-79
2021/06/18 06:19:03;;;;;;;6.22;5.05;;;18.20;99.90;;;;;;4956545;29;20322;-79
2021/06/18 06:21:30;;;;;;;6.10;4.75;;;18.20;99.90;;;;;;4962162;28;20234;-78
2021/06/18 06:23:57;;;;;;;7.28;4.88;;;18.20;99.90;;;;;;4963781;28;20285;-79
2021/06/18 06:26:24;;;;;;;5.75;4.60;;;18.30;99.90;;;;;;4969522;28;20234;-79
2021/06/18 06:28:51;;;;;;;5.28;4.60;;;18.20;99.90;;;;;;4958449;28;20290;-79
2021/06/18 06:31:18;;;;;;;5.97;4.70;;;18.30;99.90;;;;;;4957886;28;20764;-79
2021/06/18 06:33:46;;;;;;;6.55;4.50;;;18.30;99.90;;;;;;4956672;29;20250;-79
2021/06/18 06:36:13;;;;;;;4.80;4.30;;;18.20;99.90;;;;;;4956362;29;20242;-79
2021/06/18 06:38:40;;;;;;;5.93;4.60;;;18.20;99.90;;;;;;4969688;28;20688;-79
2021/06/18 06:41:07;;;;;;;5.53;4.78;;;18.30;99.90;;;;;;4973382;28;20234;-79
2021/06/18 06:43:34;;;;;;;7.18;4.30;;;18.30;99.90;;;;;;4974742;28;20199;-79
2021/06/18 06:46:01;;;;;;;5.10;4.57;;;18.40;99.90;;;;;;4962870;28;20234;-79
2021/06/18 06:48:28;;;;;;;5.72;4.32;;;18.60;99.90;;;;;;4962838;28;20256;-79
2021/06/18 06:50:56;;;;;;;6.57;4.13;;;18.60;99.90;;;;;;4955988;29;20760;-80
2021/06/18 06:53:24;;;;;;;4.07;3.67;;;18.50;99.90;;;;;;4972285;28;20287;-79
2021/06/18 06:55:51;;;;;;;5.47;4.22;;;18.50;99.90;;;;;;4963595;28;20246;-79
2021/06/18 06:58:18;;;;;;;6.78;4.22;;;18.50;99.90;;;;;;4963420;28;20700;-78
2021/06/18 07:00:45;;;;;;;5.88;4.18;;;18.50;99.90;;;;;;4955713;29;20270;-78
2021/06/18 07:03:12;;;;;;;5.90;4.38;;;18.30;99.90;;;;;;4959993;28;20242;-78
2021/06/18 07:05:39;;;;;;;5.57;4.72;;;18.20;99.90;;;;;;4965712;28;20234;-78
2021/06/18 07:08:17;;;;;;;5.85;4.22;;;18.20;99.90;;;;;;4962951;28;20282;-78
2021/06/18 07:10:44;;;;;;;5.55;4.75;;;18.10;99.90;;;;;;4965666;28;20234;-78
2021/06/18 07:13:11;;;;;;;7.93;4.93;;;18.10;99.90;;;;;;4963576;28;20282;-78
2021/06/18 07:15:38;;;;;;;7.63;5.05;;;18.10;99.90;;;;;;4970845;28;20226;-78
2021/06/18 07:18:06;;;;;;;5.97;4.82;;;18.10;99.90;;;;;;4961599;28;20242;-78
2021/06/18 07:20:33;;;;;;;5.30;4.80;;;18.10;99.90;;;;;;4968079;28;20314;-78
2021/06/18 07:23:00;;;;;;;7.07;5.30;;;18.20;99.90;;;;;;4966515;28;20222;-78
2021/06/18 07:25:28;;;;;;;6.20;5.15;;;18.10;99.90;;;;;;4966669;28;20214;-78
2021/06/18 07:27:55;;;;;;;8.10;5.07;;;18.20;99.90;;;;;;4966436;28;20205;-78
2021/06/18 07:30:23;;;;;;;7.72;5.35;;;18.30;99.90;;;;;;4966387;28;20276;-79
2021/06/18 07:32:50;;;;;;;5.88;5.15;;;18.30;99.90;;;;;;4964010;28;21256;-78
2021/06/18 07:35:17;;;;;;;6.22;4.97;;;18.40;99.90;;;;;;4963188;28;20290;-78
2021/06/18 07:37:45;;;;;;;6.40;5.00;;;18.60;99.90;;;;;;4970630;28;20238;-79
2021/06/18 07:40:14;;;;;;;6.55;5.28;;;18.60;99.90;;;;;;4963263;28;20241;-79
2021/06/18 07:42:43;;;;;;;9.40;5.25;;;18.70;99.90;;;;;;4970259;28;20202;-79
2021/06/18 07:45:11;;;;;;;7.63;5.60;;;18.80;99.90;;;;;;4963434;28;20226;-79
2021/06/18 07:47:39;;;;;;;9.02;6.45;;;19.00;99.90;;;;;;4963472;28;20237;-79
2021/06/18 07:50:07;;;;;;;8.00;7.13;;;19.00;99.90;;;;;;4963095;28;20206;-79
2021/06/18 07:52:34;;;;;;;11.02;7.10;;;19.10;99.90;;;;;;4962814;28;20534;-79
2021/06/18 07:55:02;;;;;;;7.57;6.85;;;19.40;99.90;;;;;;4964643;28;20231;-79
2021/06/18 07:57:29;;;;;;;8.23;6.82;;;19.40;99.90;;;;;;4966304;28;20202;-78
2021/06/18 07:59:57;;;;;;;7.45;6.75;;;19.50;99.90;;;;;;4965836;28;20253;-78
2021/06/18 08:02:24;;;;;;;7.97;7.18;;;19.60;99.90;;;;;;4972954;28;20209;-79
2021/06/18 08:04:52;;;;;;;10.80;8.25;;;19.80;99.90;;;;;;4972708;28;20229;-79
2021/06/18 08:07:19;;;;;;;7.63;6.93;;;19.80;99.90;;;;;;4972753;28;20305;-79
2021/06/18 08:09:48;;;;;;;9.23;8.43;;;20.10;99.90;;;;;;4965045;28;20230;-79
2021/06/18 08:12:15;;;;;;;11.90;10.73;;;19.90;99.90;;;;;;4967718;28;20294;-79
2021/06/18 08:14:42;;;;;;;15.98;14.38;;;19.70;99.90;;;;;;4965246;28;20225;-78
2021/06/18 08:17:10;;;;;;;16.45;14.75;;;19.50;99.90;;;;;;4959781;28;20234;-78
2021/06/18 08:19:44;;;;;;;16.55;14.77;;;19.40;99.90;;;;;;4965481;28;20305;-79
2021/06/18 08:22:11;;;;;;;13.90;12.35;;;19.40;99.90;;;;;;4965730;28;20285;-79
2021/06/18 08:24:39;;;;;;;13.05;11.65;;;19.40;99.90;;;;;;4962147;28;20230;-79
2021/06/18 08:27:06;;;;;;;12.23;9.55;;;19.30;99.90;;;;;;4964050;28;20269;-78
2021/06/18 08:29:33;;;;;;;7.45;6.70;;;19.60;99.90;;;;;;4962652;28;20716;-79
2021/06/18 08:32:00;;;;;;;6.93;5.78;;;19.70;99.90;;;;;;4967173;28;20222;-79
2021/06/18 08:34:28;;;;;;;7.57;5.95;;;19.90;99.90;;;;;;4962330;28;20238;-78
2021/06/18 08:36:56;;;;;;;6.03;4.90;;;19.80;99.90;;;;;;4961381;28;20713;-78
2021/06/18 08:39:22;;;;;;;4.97;3.92;;;20.00;99.90;;;;;;4964087;28;20282;-78
2021/06/18 08:41:50;;;;;;;8.50;4.63;;;19.90;99.90;;;;;;4965449;28;20199;-79
2021/06/18 08:44:17;;;;;;;4.85;3.92;;;19.80;99.90;;;;;;4961889;28;20233;-78
2021/06/18 08:46:44;;;;;;;6.25;4.13;;;19.50;99.90;;;;;;4961537;28;20587;-78
2021/06/18 08:49:11;;;;;;;5.55;4.10;;;19.50;99.90;;;;;;4961662;28;20321;-78
2021/06/18 08:51:40;;;;;;;8.43;4.50;;;19.30;99.90;;;;;;4964293;28;20253;-79
2021/06/18 08:54:08;;;;;;;6.55;4.00;;;19.30;99.90;;;;;;4967183;28;20229;-78
2021/06/18 08:56:35;;;;;;;5.97;3.97;;;19.40;99.90;;;;;;4961806;28;20214;-79
2021/06/18 08:59:01;;;;;;;3.78;3.45;;;19.30;99.90;;;;;;4961465;28;20230;-78
2021/06/18 09:01:28;;;;;;;5.38;3.45;;;19.30;99.90;;;;;;4962452;28;20305;-78
2021/06/18 09:03:56;;;;;;;7.30;3.65;;;19.40;99.90;;;;;;4961642;28;20231;-78
2021/06/18 09:06:34;;;;;;;4.90;3.45;;;19.20;99.90;;;;;;4958113;28;20213;-79
2021/06/18 09:09:17;;;;;;;4.32;3.05;;;19.10;99.90;;;;;;4967291;28;20593;-78
2021/06/18 09:11:47;;;;;;;6.65;3.25;;;18.90;99.90;;;;;;4953987;29;20230;-78
2021/06/18 09:14:16;;;;;;;3.65;2.53;;;18.80;99.90;;;;;;4969231;28;20273;-78
2021/06/18 09:16:43;;;;;;;2.47;1.98;;;18.90;99.90;;;;;;4971322;28;20250;-78
2021/06/18 09:19:24;;;;;;;2.65;1.50;;;19.00;99.90;;;;;;4972514;28;20289;-79
2021/06/18 09:21:58;;;;;;;1.45;1.30;;;19.10;99.90;;;;;;4960326;28;20233;-79
2021/06/18 09:24:29;;;;;;;1.25;1.15;;;19.40;99.90;;;;;;4953440;28;20230;-79
2021/06/18 09:26:56;;;;;;;1.38;1.20;;;19.60;99.90;;;;;;4965184;28;20198;-79
2021/06/18 09:29:23;;;;;;;2.17;1.00;;;19.60;99.90;;;;;;4972952;28;20237;-79
2021/06/18 09:31:53;;;;;;;1.05;1.00;;;19.70;99.90;;;;;;4937237;28;20287;-78
2021/06/18 09:34:46;;;;;;;2.13;1.10;;;20.00;99.90;;;;;;4966249;28;20265;-78
2021/06/18 09:37:24;;;;;;;0.95;0.90;;;20.00;99.90;;;;;;4971980;28;20739;-79
2021/06/18 09:40:15;;;;;;;1.10;0.80;;;20.20;99.90;;;;;;4970651;28;20253;-78
2021/06/18 09:42:53;;;;;;;1.00;0.80;;;20.20;99.90;;;;;;4972651;28;20202;-79
2021/06/18 09:45:21;;;;;;;1.20;1.08;;;20.00;99.90;;;;;;4960839;28;20695;-78
2021/06/18 09:47:49;;;;;;;1.65;1.15;;;20.20;99.90;;;;;;4958426;28;20230;-79
2021/06/18 09:50:29;;;;;;;1.20;1.10;;;20.40;99.90;;;;;;4967970;28;20233;-79
2021/06/18 09:53:13;;;;;;;1.58;1.48;;;20.50;99.90;;;;;;4965627;28;20214;-79
2021/06/18 09:55:42;;;;;;;2.45;2.00;;;20.60;99.90;;;;;;4965257;28;20294;-79
2021/06/18 09:58:11;;;;;;;1.80;1.70;;;20.60;99.90;;;;;;4968319;28;20237;-79
2021/06/18 10:00:37;;;;;;;1.90;1.75;;;20.80;99.90;;;;;;4966038;28;20277;-79
2021/06/18 10:03:10;;;;;;;3.75;2.42;;;21.00;99.90;;;;;;4957235;29;20288;-79
2021/06/18 10:05:39;;;;;;;2.60;1.88;;;20.90;99.90;;;;;;4973402;28;20213;-79
2021/06/18 10:08:07;;;;;;;2.28;2.08;;;21.20;99.90;;;;;;4976794;28;20301;-79
2021/06/18 10:10:36;;;;;;;1.88;1.77;;;21.10;99.90;;;;;;4965530;28;20675;-79
2021/06/18 10:13:05;;;;;;;2.22;1.50;;;21.20;99.90;;;;;;4957283;29;20237;-79
2021/06/18 10:15:37;;;;;;;1.67;1.38;;;21.40;99.90;;;;;;4957049;29;20214;-79
2021/06/18 10:18:08;;;;;;;1.40;1.30;;;21.60;99.90;;;;;;4968416;28;20705;-79
2021/06/18 10:20:36;;;;;;;2.78;1.48;;;21.90;99.90;;;;;;4975256;28;20784;-79
2021/06/18 10:23:09;;;;;;;1.25;1.15;;;21.50;99.90;;;;;;4975003;28;20207;-79
2021/06/18 10:25:39;;;;;;;2.40;2.03;;;21.00;99.90;;;;;;4976294;28;20202;-79
2021/06/18 10:28:09;;;;;;;2.25;1.58;;;20.40;99.90;;;;;;4975939;28;20257;-79
2021/06/18 10:30:44;;;;;;;1.38;1.27;;;20.00;99.90;;;;;;4975625;28;20276;-80
2021/06/18 10:33:36;;;;;;;1.50;1.40;;;20.10;99.90;;;;;;4975955;28;20581;-79
2021/06/18 10:36:19;;;;;;;1.75;1.63;;;20.20;99.90;;;;;;4969970;28;20256;-79
2021/06/18 10:39:00;;;;;;;1.52;1.42;;;20.40;99.90;;;;;;4961980;28;20203;-79
2021/06/18 10:41:28;;;;;;;1.80;1.30;;;20.30;99.90;;;;;;4965816;28;20260;-78
2021/06/18 10:43:58;;;;;;;1.30;1.15;;;20.10;99.90;;;;;;4975896;28;20230;-79
2021/06/18 10:46:29;;;;;;;1.20;1.10;;;19.70;99.90;;;;;;4975923;28;20265;-78
2021/06/18 10:49:05;;;;;;;2.38;1.40;;;19.40;99.90;;;;;;4975258;28;20269;-79
2021/06/18 10:51:46;;;;;;;1.58;1.48;;;19.30;99.90;;;;;;4975755;28;20230;-79
2021/06/18 10:54:25;;;;;;;2.50;1.70;;;19.30;99.90;;;;;;4968242;28;20234;-78
2021/06/18 10:57:14;;;;;;;3.35;2.22;;;19.40;99.90;;;;;;4960405;28;20214;-79
2021/06/18 10:59:47;;;;;;;3.10;2.90;;;19.30;99.90;;;;;;4958083;28;20199;-76
2021/06/18 11:02:35;;;;;;;4.05;3.60;;;19.10;99.90;;;;;;4961973;28;20215;-76
2021/06/18 11:05:07;;;;;;;4.80;4.32;;;18.80;99.90;;;;;;4973640;28;20206;-76
2021/06/18 11:07:35;;;;;;;5.28;4.78;;;18.60;99.90;;;;;;4964037;28;20234;-76
2021/06/18 11:10:06;;;;;;;5.80;5.20;;;18.40;99.90;;;;;;4974533;28;20286;-76
2021/06/18 11:12:35;;;;;;;5.82;5.28;;;18.30;99.90;;;;;;4973753;28;20203;-76
2021/06/18 11:15:06;;;;;;;6.28;5.53;;;18.30;99.90;;;;;;4969115;28;20237;-75
2021/06/18 11:17:43;;;;;;;6.35;5.75;;;18.30;99.90;;;;;;4973078;28;20297;-76
2021/06/18 11:20:15;;;;;;;6.40;5.70;;;18.30;99.90;;;;;;4971390;28;20194;-77
2021/06/18 11:22:47;;;;;;;6.68;5.93;;;18.30;99.90;;;;;;4955493;28;20653;-77
2021/06/18 11:25:51;;;;;;;7.03;6.32;;;18.30;99.90;;;;;;4958039;28;20234;-78
2021/06/18 11:28:39;;;;;;;7.35;6.65;;;18.20;99.90;;;;;;4964912;28;20210;-78
2021/06/18 11:31:11;;;;;;;7.78;7.07;;;18.30;99.90;;;;;;4970036;28;20234;-77
2021/06/18 11:33:46;;;;;;;7.47;6.68;;;18.40;99.90;;;;;;4970127;28;20294;-77
2021/06/18 11:36:52;;;;;;;7.47;6.88;;;18.40;99.90;;;;;;4969417;28;20194;-77
2021/06/18 11:39:27;;;;;;;7.28;6.25;;;18.50;99.90;;;;;;4960401;28;20298;-77
2021/06/18 11:42:03;;;;;;;7.60;6.80;;;18.40;99.90;;;;;;4957604;28;20305;-77
2021/06/18 11:44:30;;;;;;;10.27;7.30;;;18.60;99.90;;;;;;4956961;28;20214;-77
2021/06/18 11:46:59;;;;;;;8.35;7.47;;;18.60;99.90;;;;;;4969438;28;20211;-77
2021/06/18 11:49:29;;;;;;;9.95;8.95;;;18.60;99.90;;;;;;4962770;28;20723;-77
2021/06/18 11:52:02;;;;;;;10.23;9.32;;;18.60;99.90;;;;;;4966429;28;20235;-77
2021/06/18 11:54:31;;;;;;;9.98;9.18;;;18.60;99.90;;;;;;4969471;28;20210;-77
2021/06/18 11:57:11;;;;;;;10.30;9.23;;;18.70;99.90;;;;;;4958075;28;20231;-78
2021/06/18 11:59:41;;;;;;;9.30;8.40;;;19.00;99.90;;;;;;4974206;28;20207;-77
2021/06/18 12:02:20;;;;;;;8.77;8.05;;;19.50;99.90;;;;;;4966140;28;20223;-77
2021/06/18 12:04:59;;;;;;;8.80;7.90;;;19.60;99.90;;;;;;4955934;28;20658;-77
2021/06/18 12:07:30;;;;;;;7.50;6.72;;;19.80;99.90;;;;;;4973674;28;20306;-78
2021/06/18 12:09:57;;;;;;;6.93;6.07;;;20.40;99.90;;;;;;4973801;28;20194;-79
2021/06/18 12:12:24;;;;;;;5.45;4.95;;;20.60;99.90;;;;;;4973070;28;20565;-78
2021/06/18 12:14:55;;;;;;;7.95;5.68;;;21.30;99.90;;;;;;4973382;28;20612;-77
2021/06/18 12:17:24;;;;;;;8.25;7.10;;;21.30;99.90;;;;;;4973638;28;20222;-77
2021/06/18 12:19:53;;;;;;;8.05;6.78;;;21.10;99.90;;;;;;4973351;28;20206;-76
2021/06/18 12:22:22;;;;;;;9.00;8.10;;;21.10;99.90;;;;;;4972924;28;20898;-77
2021/06/18 12:24:51;;;;;;;9.88;7.28;;;20.40;99.90;;;;;;4973338;28;20739;-77
2021/06/18 12:27:20;;;;;;;6.45;5.80;;;20.60;99.90;;;;;;4971286;28;20741;-77
2021/06/18 12:29:52;;;;;;;6.15;5.55;;;21.40;99.90;;;;;;4973107;28;20245;-78
2021/06/18 12:32:20;;;;;;;6.88;5.38;;;21.10;99.90;;;;;;4964346;28;20281;-77
2021/06/18 12:34:51;;;;;;;5.40;4.90;;;21.00;99.90;;;;;;4954173;29;20208;-77
2021/06/18 12:37:21;;;;;;;6.72;5.38;;;20.80;99.90;;;;;;4954077;29;20424;-77
2021/06/18 12:39:53;;;;;;;6.38;5.10;;;20.70;99.90;;;;;;4953999;29;20257;-77
2021/06/18 12:42:26;;;;;;;5.90;4.82;;;20.50;99.90;;;;;;4965963;28;20218;-76
2021/06/18 12:45:10;;;;;;;5.72;4.97;;;20.80;99.90;;;;;;4972911;28;20257;-77
2021/06/18 12:47:39;;;;;;;5.10;4.60;;;21.10;99.90;;;;;;4969273;28;20206;-77
2021/06/18 12:50:26;;;;;;;4.10;3.72;;;21.70;99.90;;;;;;4972986;28;20706;-77
2021/06/18 12:52:56;;;;;;;4.85;3.30;;;23.60;99.90;;;;;;4972740;28;20233;-78
2021/06/18 12:55:32;;;;;;;3.97;3.58;;;24.00;99.90;;;;;;4968487;28;20306;-77
2021/06/18 12:58:10;;;;;;;3.78;3.15;;;23.80;99.90;;;;;;4969406;28;20673;-77